Los Molles, Argentina
Current Conditions -  °F | °C
As of 4:00 AM on Wednesday 26 Nov 2014 (Local Time) from SACO Reporting Station
Moderate Rain Moderate Rain  
Wind Chill: 61°   Ceiling: 5000
Heat Index: 61°   Visibility: 3mi
Dew Point: 59°   Wind: 1mph
Humidity: 94%   Direction: 290°WNW
Pressure: 30"   Gusts: NA
Location:  31.95°S, 65.03°W
Report Text: SACO 260700Z 29001KT 5000 RA SCT025FEW045CB BKN050 16/15 Q1016
Loading
Personal Weather Stations






























Interactive Weather Map New forecast layout! Learn more

10-Day Weather Forecast

Advertisements
Track Severe Weather on mobile